| time (UTC) | temp F | wind direction | speed MPH | gust MPH | rain 1hr in | rain 24hr in | rain mn in | humidity % | barometer mb |
| 20260510191905 | 67 | 37 | 10.0 | 18.0 | 0.01 | 0.68 | 0.68 | 76 | 1014.8 |
| 20260510191405 | 67 | 53 | 9.0 | 14.0 | 0.04 | 0.68 | 0.68 | 77 | 1014.9 |
| 20260510190905 | 66 | 40 | 7.0 | 15.0 | 0.06 | 0.68 | 0.68 | 77 | 1015.0 |
| 20260510190404 | 66 | 44 | 10.0 | 17.0 | 0.09 | 0.68 | 0.68 | 77 | 1015.1 |
| 20260510185905 | 66 | 50 | 7.0 | 12.0 | 0.15 | 0.68 | 0.68 | 78 | 1014.8 |
| 20260510185405 | 65 | 44 | 9.0 | 17.0 | 0.16 | 0.68 | 0.68 | 75 | 1014.9 |
| 20260510184905 | 64 | 29 | 9.0 | 12.0 | 0.18 | 0.68 | 0.68 | 73 | 1014.7 |
| 20260510184405 | 64 | 55 | 8.0 | 15.0 | 0.28 | 0.68 | 0.68 | 72 | 1014.8 |
| 20260510183905 | 64 | 29 | 9.0 | 15.0 | 0.38 | 0.68 | 0.68 | 71 | 1014.7 |
| 20260510182905 | 64 | 28 | 6.0 | 14.0 | 0.56 | 0.68 | 0.68 | 71 | 1015.0 |
| 20260510182405 | 64 | 50 | 12.0 | 20.0 | 0.58 | 0.68 | 0.68 | 70 | 1014.7 |
| 20260510181905 | 64 | 50 | 11.0 | 22.0 | 0.57 | 0.67 | 0.67 | 69 | 1014.2 |
| 20260510180904 | 64 | 38 | 10.0 | 16.0 | 0.52 | 0.62 | 0.62 | 67 | 1015.1 |
| 20260510175905 | 64 | 31 | 10.0 | 16.0 | 0.43 | 0.53 | 0.53 | 65 | 1015.2 |
| 20260510175405 | 65 | 8 | 9.0 | 20.0 | 0.42 | 0.52 | 0.52 | 64 | 1015.4 |
| 20260510174905 | 65 | 17 | 12.0 | 20.0 | 0.40 | 0.50 | 0.50 | 63 | 1015.2 |
| 20260510174405 | 66 | 4 | 8.0 | 18.0 | 0.30 | 0.40 | 0.40 | 62 | 1015.5 |
| 20260510173405 | 67 | 1 | 16.0 | 23.0 | 0.10 | 0.20 | 0.20 | 60 | 1015.2 |
| 20260510172905 | 69 | 351 | 16.0 | 26.0 | 0.02 | 0.12 | 0.12 | 59 | 1015.4 |
| 20260510172405 | 70 | 333 | 14.0 | 26.0 | 0.00 | 0.10 | 0.10 | 55 | 1015.2 |
| 20260510171905 | 72 | 330 | 15.0 | 29.0 | 0.00 | 0.10 | 0.10 | 53 | 1015.0 |
| 20260510171405 | 75 | 324 | 23.0 | 38.0 | 0.00 | 0.10 | 0.10 | 49 | 1014.7 |
| 20260510170905 | 80 | 293 | 18.0 | 36.0 | 0.00 | 0.10 | 0.10 | 46 | 1014.0 |
| 20260510170404 | 82 | 144 | 2.0 | 9.0 | 0.00 | 0.10 | 0.10 | 50 | 1013.8 |
| 20260510165905 | 82 | 121 | 6.0 | 12.0 | 0.00 | 0.10 | 0.10 | 50 | 1013.5 |
| 20260510165405 | 82 | 131 | 3.0 | 8.0 | 0.00 | 0.10 | 0.10 | 49 | 1013.5 |
| 20260510164905 | 82 | 90 | 4.0 | 12.0 | 0.00 | 0.10 | 0.10 | 49 | 1013.4 |
| 20260510164405 | 82 | 119 | 7.0 | 14.0 | 0.00 | 0.10 | 0.10 | 50 | 1013.3 |
| 20260510163905 | 82 | 153 | 9.0 | 15.0 | 0.00 | 0.10 | 0.10 | 49 | 1013.1 |
| 20260510163405 | 81 | 127 | 6.0 | 12.0 | 0.00 | 0.10 | 0.10 | 49 | 1012.9 |
| 20260510162904 | 81 | 112 | 6.0 | 13.0 | 0.00 | 0.10 | 0.10 | 50 | 1012.7 |
| 20260510160905 | 79 | 134 | 7.0 | 18.0 | 0.00 | 0.10 | 0.10 | 51 | 1012.3 |
| 20260510160405 | 79 | 142 | 12.0 | 24.0 | 0.00 | 0.10 | 0.10 | 50 | 1011.9 |
| 20260510155905 | 79 | 145 | 9.0 | 20.0 | 0.00 | 0.10 | 0.10 | 51 | 1011.6 |
| 20260510154905 | 78 | 140 | 12.0 | 17.0 | 0.00 | 0.10 | 0.10 | 51 | 1011.6 |
| 20260510154405 | 77 | 136 | 10.0 | 20.0 | 0.00 | 0.10 | 0.10 | 52 | 1011.7 |
| 20260510153906 | 77 | 130 | 10.0 | 20.0 | 0.00 | 0.10 | 0.10 | 52 | 1011.7 |
| 20260510153405 | 76 | 138 | 13.0 | 20.0 | 0.00 | 0.10 | 0.10 | 53 | 1011.6 |
| 20260510152905 | 75 | 134 | 9.0 | 15.0 | 0.00 | 0.10 | 0.10 | 55 | 1011.6 |
| 20260510152405 | 75 | 137 | 10.0 | 16.0 | 0.00 | 0.10 | 0.10 | 53 | 1011.8 |
| 20260510151905 | 74 | 145 | 12.0 | 20.0 | 0.00 | 0.10 | 0.10 | 55 | 1011.8 |
| 20260510151404 | 74 | 133 | 10.0 | 14.0 | 0.00 | 0.10 | 0.10 | 56 | 1011.6 |
| 20260510150905 | 73 | 143 | 7.0 | 13.0 | 0.00 | 0.10 | 0.10 | 56 | 1011.4 |
| 20260510150405 | 73 | 136 | 10.0 | 18.0 | 0.00 | 0.10 | 0.10 | 57 | 1011.4 |
| 20260510145905 | 72 | 124 | 10.0 | 16.0 | 0.00 | 0.10 | 0.10 | 58 | 1011.2 |
| 20260510145404 | 72 | 140 | 9.0 | 17.0 | 0.00 | 0.10 | 0.10 | 59 | 1011.4 |
| 20260510144404 | 70 | 135 | 6.0 | 12.0 | 0.00 | 0.10 | 0.10 | 64 | 1011.7 |
| 20260510143405 | 69 | 120 | 6.0 | 14.0 | 0.00 | 0.10 | 0.10 | 67 | 1011.9 |
| 20260510142905 | 68 | 142 | 8.0 | 12.0 | 0.00 | 0.10 | 0.10 | 67 | 1012.2 |
| 20260510142405 | 67 | 140 | 7.0 | 10.0 | 0.00 | 0.10 | 0.10 | 67 | 1012.4 |
| 20260510141905 | 67 | 138 | 5.0 | 9.0 | 0.00 | 0.10 | 0.10 | 67 | 1012.6 |
| 20260510141405 | 67 | 146 | 5.0 | 7.0 | 0.00 | 0.10 | 0.10 | 67 | 1012.8 |
| 20260510140405 | 66 | 160 | 3.0 | 7.0 | 0.00 | 0.10 | 0.10 | 67 | 1013.2 |
| 20260510135905 | 66 | 158 | 3.0 | 5.0 | 0.00 | 0.10 | 0.10 | 67 | 1013.3 |
| 20260510135405 | 66 | 153 | 3.0 | 7.0 | 0.00 | 0.10 | 0.10 | 66 | 1013.3 |
| 20260510134405 | 66 | 98 | 4.0 | 8.0 | 0.00 | 0.10 | 0.10 | 66 | 1013.2 |
| 20260510133905 | 66 | 105 | 3.0 | 7.0 | 0.00 | 0.10 | 0.10 | 67 | 1013.1 |
| 20260510133405 | 66 | 115 | 4.0 | 8.0 | 0.00 | 0.10 | 0.10 | 67 | 1013.1 |
| 20260510132905 | 66 | 114 | 3.0 | 7.0 | 0.00 | 0.10 | 0.10 | 67 | 1013.0 |
| 20260510132405 | 66 | 109 | 3.0 | 8.0 | 0.00 | 0.10 | 0.10 | 68 | 1012.8 |
| 20260510131905 | 65 | 108 | 3.0 | 9.0 | 0.00 | 0.10 | 0.10 | 68 | 1012.7 |
| 20260510125405 | 65 | 97 | 3.0 | 7.0 | 0.00 | 0.10 | 0.10 | 70 | 1012.7 |
| 20260510124905 | 65 | 72 | 4.0 | 7.0 | 0.00 | 0.10 | 0.10 | 70 | 1012.7 |
| 20260510124405 | 65 | 94 | 2.0 | 6.0 | 0.00 | 0.10 | 0.10 | 71 | 1012.6 |
| 20260510123905 | 65 | 96 | 5.0 | 8.0 | 0.00 | 0.10 | 0.10 | 70 | 1012.5 |
| 20260510123405 | 65 | 95 | 3.0 | 7.0 | 0.00 | 0.10 | 0.10 | 70 | 1012.6 |
| 20260510122405 | 64 | 5 | 3.0 | 8.0 | 0.00 | 0.10 | 0.10 | 69 | 1012.4 |
| 20260510121405 | 64 | 0 | 3.0 | 8.0 | 0.00 | 0.10 | 0.10 | 69 | 1012.3 |
| 20260510115905 | 64 | 93 | 4.0 | 8.0 | 0.00 | 0.10 | 0.10 | 69 | 1012.1 |
| 20260510115404 | 64 | 75 | 3.0 | 8.0 | 0.00 | 0.10 | 0.10 | 69 | 1012.2 |
| 20260510114904 | 64 | 75 | 4.0 | 8.0 | 0.00 | 0.10 | 0.10 | 69 | 1012.1 |
| 20260510114404 | 64 | 81 | 3.0 | 8.0 | 0.00 | 0.10 | 0.10 | 69 | 1012.1 |
| 20260510113904 | 65 | 73 | 2.0 | 6.0 | 0.00 | 0.10 | 0.10 | 68 | 1012.2 |
| 20260510113404 | 65 | 73 | 3.0 | 7.0 | 0.00 | 0.10 | 0.10 | 68 | 1012.2 |
| 20260510112905 | 65 | 76 | 5.0 | 9.0 | 0.00 | 0.10 | 0.10 | 68 | 1012.0 |
| 20260510112405 | 65 | 64 | 5.0 | 8.0 | 0.01 | 0.10 | 0.10 | 67 | 1011.9 |
| 20260510111405 | 65 | 44 | 3.0 | 6.0 | 0.02 | 0.10 | 0.10 | 67 | 1012.0 |
| 20260510110904 | 65 | 2 | 3.0 | 6.0 | 0.05 | 0.10 | 0.10 | 67 | 1012.0 |
| 20260510110405 | 65 | 0 | 2.0 | 9.0 | 0.09 | 0.10 | 0.10 | 67 | 1011.6 |
| 20260510105905 | 65 | 0 | 2.0 | 5.0 | 0.10 | 0.10 | 0.10 | 67 | 1011.5 |
| 20260510105404 | 65 | 0 | 2.0 | 8.0 | 0.10 | 0.10 | 0.10 | 66 | 1011.4 |
| 20260510104904 | 65 | 0 | 5.0 | 10.0 | 0.10 | 0.10 | 0.10 | 66 | 1011.0 |
| 20260510103904 | 65 | 0 | 3.0 | 8.0 | 0.10 | 0.10 | 0.10 | 66 | 1011.2 |
| 20260510103405 | 65 | 0 | 5.0 | 12.0 | 0.10 | 0.10 | 0.10 | 66 | 1011.2 |
| 20260510102904 | 66 | 0 | 5.0 | 13.0 | 0.10 | 0.10 | 0.10 | 65 | 1011.3 |
| 20260510102405 | 66 | 0 | 8.0 | 17.0 | 0.09 | 0.09 | 0.09 | 64 | 1011.1 |
| 20260510101904 | 67 | 0 | 10.0 | 17.0 | 0.09 | 0.09 | 0.09 | 63 | 1010.9 |
| 20260510100905 | 68 | 0 | 9.0 | 14.0 | 0.05 | 0.05 | 0.05 | 60 | 1012.3 |
| 20260510100405 | 69 | 0 | 4.0 | 12.0 | 0.01 | 0.01 | 0.01 | 59 | 1013.1 |
| 20260510095904 | 69 | 3 | 6.0 | 21.0 | 0.00 | 0.00 | 0.00 | 58 | 1012.8 |
| 20260510095405 | 70 | 27 | 12.0 | 22.0 | 0.00 | 0.00 | 0.00 | 57 | 1012.2 |
| 20260510094905 | 71 | 23 | 13.0 | 20.0 | 0.00 | 0.00 | 0.00 | 55 | 1011.9 |
| 20260510093905 | 71 | 30 | 13.0 | 25.0 | 0.00 | 0.00 | 0.00 | 56 | 1011.4 |
| 20260510093406 | 72 | 25 | 10.0 | 24.0 | 0.00 | 0.00 | 0.00 | 57 | 1011.6 |
| 20260510092905 | 73 | 32 | 12.0 | 25.0 | 0.00 | 0.00 | 0.00 | 62 | 1011.5 |
| 20260510092404 | 74 | 34 | 10.0 | 15.0 | 0.00 | 0.00 | 0.00 | 68 | 1011.4 |
| 20260510091904 | 74 | 38 | 8.0 | 15.0 | 0.00 | 0.00 | 0.00 | 67 | 1011.2 |
| 20260510091405 | 74 | 28 | 6.0 | 14.0 | 0.00 | 0.00 | 0.00 | 67 | 1011.1 |
| 20260510090905 | 74 | 26 | 7.0 | 13.0 | 0.00 | 0.00 | 0.00 | 67 | 1010.9 |
| 20260510085905 | 74 | 44 | 6.0 | 10.0 | 0.00 | 0.00 | 0.00 | 67 | 1010.3 |
| 20260510085404 | 74 | 50 | 5.0 | 8.0 | 0.00 | 0.00 | 0.00 | 67 | 1010.1 |
| 20260510084905 | 73 | 48 | 5.0 | 9.0 | 0.00 | 0.00 | 0.00 | 66 | 1010.1 |
| 20260510083905 | 73 | 14 | 3.0 | 8.0 | 0.00 | 0.00 | 0.00 | 65 | 1010.0 |
| 20260510083404 | 73 | 26 | 2.0 | 7.0 | 0.00 | 0.00 | 0.00 | 65 | 1009.9 |
| 20260510082904 | 73 | 358 | 6.0 | 10.0 | 0.00 | 0.00 | 0.00 | 65 | 1009.7 |
| 20260510082405 | 73 | 351 | 4.0 | 8.0 | 0.00 | 0.00 | 0.00 | 64 | 1009.6 |
| 20260510081905 | 74 | 51 | 2.0 | 7.0 | 0.00 | 0.00 | 0.00 | 64 | 1009.3 |
| 20260510081405 | 74 | 82 | 3.0 | 3.0 | 0.00 | 0.00 | 0.00 | 64 | 1009.0 |
| 20260510080905 | 74 | 82 | 1.0 | 3.0 | 0.00 | 0.00 | 0.00 | 64 | 1008.7 |
| 20260510080405 | 74 | 77 | 3.0 | 7.0 | 0.00 | 0.00 | 0.00 | 64 | 1008.7 |
| 20260510075905 | 74 | 77 | 2.0 | 7.0 | 0.00 | 0.00 | 0.00 | 64 | 1008.8 |
| 20260510075405 | 74 | 77 | 3.0 | 7.0 | 0.00 | 0.00 | 0.00 | 64 | 1008.7 |
| 20260510074905 | 74 | 75 | 3.0 | 8.0 | 0.00 | 0.00 | 0.00 | 64 | 1008.6 |
| 20260510074405 | 74 | 84 | 5.0 | 10.0 | 0.00 | 0.00 | 0.00 | 64 | 1008.5 |
| 20260510073905 | 74 | 68 | 6.0 | 12.0 | 0.00 | 0.00 | 0.00 | 63 | 1008.4 |
| 20260510073405 | 74 | 92 | 4.0 | 8.0 | 0.00 | 0.00 | 0.00 | 62 | 1008.6 |
| 20260510072904 | 74 | 117 | 3.0 | 8.0 | 0.00 | 0.00 | 0.00 | 62 | 1008.8 |
| 20260510072404 | 74 | 77 | 4.0 | 7.0 | 0.00 | 0.00 | 0.00 | 62 | 1008.8 |
| 20260510071904 | 74 | 81 | 3.0 | 5.0 | 0.00 | 0.00 | 0.00 | 62 | 1009.0 |
| 20260510071404 | 74 | 43 | 3.0 | 6.0 | 0.00 | 0.00 | 0.00 | 62 | 1009.2 |
| 20260510070904 | 74 | 342 | 2.0 | 5.0 | 0.00 | 0.00 | 0.00 | 61 | 1009.4 |
| 20260510070405 | 74 | 355 | 2.0 | 6.0 | 0.00 | 0.00 | 0.00 | 61 | 1009.6 |
| 20260510065904 | 74 | 332 | 3.0 | 5.0 | 0.00 | 0.00 | 0.00 | 61 | 1009.5 |
| 20260510065404 | 74 | 25 | 2.0 | 3.0 | 0.00 | 0.00 | 0.00 | 61 | 1009.3 |
| 20260510064905 | 74 | 21 | 2.0 | 3.0 | 0.00 | 0.00 | 0.00 | 61 | 1009.3 |
| 20260510064405 | 74 | 341 | 2.0 | 6.0 | 0.00 | 0.00 | 0.00 | 61 | 1009.3 |
| 20260510063905 | 74 | 321 | 3.0 | 5.0 | 0.00 | 0.00 | 0.00 | 61 | 1009.3 |
| 20260510063405 | 74 | 305 | 2.0 | 5.0 | 0.00 | 0.00 | 0.00 | 61 | 1009.1 |
| 20260510062905 | 74 | 84 | 3.0 | 3.0 | 0.00 | 0.00 | 0.00 | 61 | 1008.8 |
| 20260510062405 | 74 | 117 | 1.0 | 3.0 | 0.00 | 0.00 | 0.00 | 61 | 1008.4 |
| 20260510061904 | 74 | 118 | 3.0 | 7.0 | 0.00 | 0.00 | 0.00 | 61 | 1008.0 |
| 20260510061404 | 74 | 104 | 5.0 | 9.0 | 0.00 | 0.00 | 0.00 | 61 | 1007.7 |
| 20260510060905 | 74 | 110 | 3.0 | 8.0 | 0.00 | 0.00 | 0.00 | 61 | 1007.8 |
| 20260510060405 | 74 | 108 | 3.0 | 7.0 | 0.00 | 0.00 | 0.00 | 61 | 1007.8 |
| 20260510055905 | 74 | 92 | 3.0 | 8.0 | 0.00 | 0.00 | 0.00 | 61 | 1007.8 |
| 20260510055405 | 74 | 121 | 3.0 | 9.0 | 0.00 | 0.00 | 0.00 | 61 | 1007.8 |
| 20260510054905 | 74 | 127 | 4.0 | 7.0 | 0.00 | 0.00 | 0.00 | 61 | 1007.5 |
| 20260510054405 | 74 | 95 | 5.0 | 8.0 | 0.00 | 0.00 | 0.00 | 61 | 1007.4 |
| 20260510053905 | 74 | 84 | 3.0 | 9.0 | 0.00 | 0.00 | 0.00 | 61 | 1007.6 |
| 20260510053405 | 74 | 111 | 3.0 | 8.0 | 0.00 | 0.00 | 0.00 | 61 | 1007.7 |
| 20260510052905 | 74 | 94 | 2.0 | 6.0 | 0.00 | 0.00 | 0.00 | 61 | 1007.8 |
| 20260510052405 | 74 | 101 | 3.0 | 8.0 | 0.00 | 0.00 | 0.00 | 61 | 1007.8 |
| 20260510051905 | 75 | 95 | 3.0 | 8.0 | 0.00 | 0.00 | 0.00 | 61 | 1007.6 |
| 20260510051405 | 75 | 110 | 4.0 | 9.0 | 0.00 | 0.00 | 0.00 | 61 | 1007.5 |
| 20260510050904 | 75 | 113 | 4.0 | 9.0 | 0.00 | 0.00 | 0.00 | 61 | 1007.4 |
| 20260510050405 | 75 | 101 | 5.0 | 12.0 | 0.00 | 0.00 | 0.00 | 61 | 1007.4 |
| 20260510045904 | 75 | 87 | 5.0 | 10.0 | 0.00 | 0.00 | 0.00 | 61 | 1007.3 |
| 20260510044904 | 75 | 96 | 6.0 | 10.0 | 0.00 | 0.00 | 0.00 | 61 | 1007.0 |
| 20260510044405 | 75 | 103 | 5.0 | 12.0 | 0.00 | 0.00 | 0.00 | 60 | 1007.0 |
| 20260510043905 | 75 | 92 | 5.0 | 13.0 | 0.00 | 0.00 | 0.00 | 60 | 1007.0 |
| 20260510043405 | 75 | 102 | 5.0 | 9.0 | 0.00 | 0.00 | 0.00 | 60 | 1007.2 |
| 20260510042905 | 75 | 86 | 2.0 | 5.0 | 0.00 | 0.00 | 0.00 | 59 | 1007.2 |
| 20260510042405 | 75 | 84 | 3.0 | 6.0 | 0.00 | 0.00 | 0.00 | 59 | 1007.3 |
| 20260510041904 | 75 | 76 | 3.0 | 8.0 | 0.00 | 0.00 | 0.00 | 59 | 1007.4 |
| 20260510041405 | 75 | 88 | 3.0 | 7.0 | 0.00 | 0.00 | 0.00 | 59 | 1007.3 |
| 20260510040904 | 75 | 84 | 2.0 | 7.0 | 0.00 | 0.00 | 0.00 | 58 | 1007.3 |
| 20260510040404 | 75 | 88 | 3.0 | 8.0 | 0.00 | 0.00 | 0.00 | 58 | 1007.2 |
| 20260510035905 | 75 | 100 | 2.0 | 6.0 | 0.00 | 0.00 | 0.00 | 58 | 1007.3 |
| 20260510035405 | 75 | 91 | 4.0 | 10.0 | 0.00 | 0.00 | 0.00 | 57 | 1007.3 |
| 20260510034905 | 75 | 85 | 3.0 | 7.0 | 0.00 | 0.00 | 0.00 | 56 | 1007.2 |
| 20260510034405 | 75 | 90 | 2.0 | 5.0 | 0.00 | 0.00 | 0.00 | 56 | 1007.2 |
| 20260510033904 | 75 | 78 | 2.0 | 7.0 | 0.00 | 0.00 | 0.00 | 56 | 1007.1 |
| 20260510033405 | 75 | 88 | 2.0 | 3.0 | 0.00 | 0.00 | 0.00 | 56 | 1007.2 |
| 20260510032905 | 75 | 86 | 3.0 | 5.0 | 0.00 | 0.00 | 0.00 | 56 | 1007.3 |
| 20260510032405 | 76 | 89 | 3.0 | 6.0 | 0.00 | 0.00 | 0.00 | 55 | 1007.3 |
| 20260510031907 | 76 | 92 | 3.0 | 6.0 | 0.00 | 0.00 | 0.00 | 55 | 1007.3 |
| 20260510031404 | 76 | 92 | 2.0 | 3.0 | 0.00 | 0.00 | 0.00 | 55 | 1007.3 |
| 20260510030905 | 76 | 91 | 2.0 | 3.0 | 0.00 | 0.00 | 0.00 | 55 | 1007.3 |
| 20260510030404 | 76 | 66 | 2.0 | 3.0 | 0.00 | 0.00 | 0.00 | 55 | 1007.3 |
| 20260510025904 | 76 | 70 | 3.0 | 5.0 | 0.00 | 0.00 | 0.00 | 55 | 1007.3 |
| 20260510025405 | 76 | 70 | 3.0 | 6.0 | 0.00 | 0.00 | 0.00 | 54 | 1007.3 |
| 20260510024904 | 76 | 72 | 3.0 | 7.0 | 0.00 | 0.00 | 0.00 | 54 | 1007.2 |
| 20260510024405 | 76 | 84 | 4.0 | 7.0 | 0.00 | 0.00 | 0.00 | 54 | 1007.2 |
| 20260510023905 | 76 | 64 | 3.0 | 6.0 | 0.00 | 0.00 | 0.00 | 54 | 1007.2 |
| 20260510023405 | 77 | 64 | 3.0 | 7.0 | 0.00 | 0.00 | 0.00 | 53 | 1007.2 |
| 20260510022905 | 77 | 76 | 3.0 | 5.0 | 0.00 | 0.00 | 0.00 | 53 | 1007.1 |
| 20260510022404 | 77 | 76 | 3.0 | 5.0 | 0.00 | 0.00 | 0.00 | 53 | 1007.0 |
| 20260510021905 | 77 | 74 | 2.0 | 3.0 | 0.00 | 0.00 | 0.00 | 53 | 1007.0 |
| 20260510020904 | 78 | 71 | 2.0 | 3.0 | 0.00 | 0.00 | 0.00 | 53 | 1006.9 |
| 20260510020405 | 78 | 71 | 3.0 | 3.0 | 0.00 | 0.00 | 0.00 | 53 | 1006.8 |
| 20260510015905 | 78 | 71 | 2.0 | 6.0 | 0.00 | 0.00 | 0.00 | 52 | 1006.8 |
| 20260510015405 | 79 | 96 | 3.0 | 6.0 | 0.00 | 0.00 | 0.00 | 52 | 1006.8 |
| 20260510014905 | 79 | 85 | 3.0 | 6.0 | 0.00 | 0.00 | 0.00 | 52 | 1006.7 |
| 20260510014405 | 79 | 79 | 3.0 | 5.0 | 0.00 | 0.00 | 0.00 | 51 | 1006.5 |
| 20260510013905 | 79 | 79 | 3.0 | 5.0 | 0.00 | 0.00 | 0.00 | 51 | 1006.4 |
| 20260510013404 | 80 | 83 | 2.0 | 5.0 | 0.00 | 0.00 | 0.00 | 51 | 1006.5 |
| 20260510012904 | 80 | 74 | 3.0 | 3.0 | 0.00 | 0.00 | 0.00 | 51 | 1006.4 |
| 20260510012404 | 80 | 71 | 2.0 | 3.0 | 0.00 | 0.00 | 0.00 | 51 | 1006.3 |
| 20260510011905 | 81 | 66 | 2.0 | 3.0 | 0.00 | 0.00 | 0.00 | 50 | 1006.2 |
| 20260510011405 | 81 | 75 | 2.0 | 5.0 | 0.00 | 0.00 | 0.00 | 50 | 1006.2 |
| 20260510010905 | 82 | 72 | 2.0 | 6.0 | 0.00 | 0.00 | 0.00 | 50 | 1006.2 |
| 20260510010404 | 82 | 79 | 3.0 | 5.0 | 0.00 | 0.00 | 0.00 | 50 | 1006.2 |
| 20260510005404 | 83 | 74 | 3.0 | 5.0 | 0.00 | 0.00 | 0.00 | 48 | 1006.1 |
| 20260510004905 | 83 | 83 | 3.0 | 5.0 | 0.00 | 0.00 | 0.00 | 47 | 1006.1 |
| 20260510004405 | 83 | 68 | 3.0 | 3.0 | 0.00 | 0.00 | 0.00 | 47 | 1006.1 |
| 20260510003905 | 83 | 67 | 3.0 | 5.0 | 0.00 | 0.00 | 0.00 | 46 | 1006.0 |
| 20260510003406 | 84 | 74 | 2.0 | 3.0 | 0.00 | 0.00 | 0.00 | 46 | 1006.0 |
| 20260510002905 | 84 | 66 | 3.0 | 5.0 | 0.00 | 0.00 | 0.00 | 45 | 1006.1 |
| 20260510002404 | 84 | 68 | 3.0 | 6.0 | 0.00 | 0.00 | 0.00 | 45 | 1006.1 |
| 20260510001405 | 85 | 60 | 3.0 | 6.0 | 0.00 | 0.00 | 0.00 | 44 | 1006.0 |
| 20260510000905 | 85 | 63 | 3.0 | 5.0 | 0.00 | 0.00 | 0.00 | 43 | 1005.9 |
| 20260510000405 | 85 | 64 | 3.0 | 5.0 | 0.00 | 0.00 | 0.00 | 42 | 1005.9 |
| 20260509235905 | 85 | 65 | 1.0 | 3.0 | 0.00 | 0.00 | 0.00 | 39 | 1005.9 |
| 20260509235404 | 86 | 65 | 3.0 | 5.0 | 0.00 | 0.00 | 0.00 | 40 | 1005.9 |
| 20260509234905 | 86 | 51 | 3.0 | 6.0 | 0.00 | 0.00 | 0.00 | 38 | 1005.9 |
| 20260509234404 | 86 | 52 | 3.0 | 6.0 | 0.00 | 0.00 | 0.00 | 39 | 1005.9 |
| 20260509233904 | 86 | 56 | 1.0 | 3.0 | 0.00 | 0.00 | 0.00 | 38 | 1005.9 |
| 20260509231905 | 87 | 73 | 3.0 | 8.0 | 0.00 | 0.00 | 0.00 | 40 | 1005.9 |
| 20260509231405 | 87 | 81 | 3.0 | 8.0 | 0.00 | 0.00 | 0.00 | 40 | 1005.9 |
| 20260509230904 | 87 | 105 | 2.0 | 3.0 | 0.00 | 0.00 | 0.00 | 37 | 1005.9 |
| 20260509230405 | 87 | 106 | 2.0 | 3.0 | 0.00 | 0.00 | 0.00 | 40 | 1005.9 |
| 20260509225904 | 88 | 109 | 3.0 | 7.0 | 0.00 | 0.00 | 0.00 | 39 | 1005.9 |
| 20260509225404 | 88 | 46 | 2.0 | 6.0 | 0.00 | 0.00 | 0.00 | 38 | 1006.0 |
| 20260509224905 | 88 | 91 | 0.0 | 6.0 | 0.00 | 0.00 | 0.00 | 39 | 1005.9 |
| 20260509224404 | 88 | 91 | 3.0 | 7.0 | 0.00 | 0.00 | 0.00 | 40 | 1005.8 |
| 20260509223904 | 87 | 101 | 2.0 | 5.0 | 0.00 | 0.00 | 0.00 | 40 | 1005.8 |
| 20260509223404 | 87 | 49 | 2.0 | 3.0 | 0.00 | 0.00 | 0.00 | 38 | 1005.8 |
| 20260509222904 | 87 | 44 | 4.0 | 6.0 | 0.00 | 0.00 | 0.00 | 40 | 1005.8 |
| 20260509222405 | 87 | 84 | 2.0 | 3.0 | 0.00 | 0.00 | 0.00 | 39 | 1005.7 |
| 20260509221404 | 87 | 85 | 2.0 | 3.0 | 0.00 | 0.00 | 0.00 | 40 | 1005.8 |
| 20260509220904 | 87 | 70 | 1.0 | 6.0 | 0.00 | 0.00 | 0.00 | 41 | 1005.9 |
| 20260509220404 | 87 | 40 | 3.0 | 8.0 | 0.00 | 0.00 | 0.00 | 42 | 1005.9 |
| 20260509215904 | 87 | 41 | 2.0 | 6.0 | 0.00 | 0.00 | 0.00 | 42 | 1005.9 |
| 20260509215405 | 87 | 67 | 3.0 | 5.0 | 0.00 | 0.00 | 0.00 | 43 | 1006.0 |
| 20260509214904 | 87 | 81 | 2.0 | 7.0 | 0.00 | 0.00 | 0.00 | 43 | 1006.0 |
| 20260509214404 | 87 | 66 | 2.0 | 3.0 | 0.00 | 0.00 | 0.00 | 42 | 1005.9 |
| 20260509213904 | 87 | 60 | 2.0 | 3.0 | 0.00 | 0.00 | 0.00 | 43 | 1006.0 |
| 20260509213405 | 87 | 62 | 3.0 | 9.0 | 0.00 | 0.00 | 0.00 | 44 | 1006.1 |
| 20260509212404 | 87 | 339 | 3.0 | 7.0 | 0.00 | 0.00 | 0.00 | 42 | 1006.2 |
| 20260509211905 | 87 | 111 | 2.0 | 6.0 | 0.00 | 0.00 | 0.00 | 43 | 1006.2 |
| 20260509211405 | 87 | 174 | 3.0 | 6.0 | 0.00 | 0.00 | 0.00 | 44 | 1006.2 |
| 20260509210905 | 87 | 65 | 2.0 | 3.0 | 0.00 | 0.00 | 0.00 | 43 | 1006.4 |
| 20260509205404 | 87 | 27 | 3.0 | 8.0 | 0.00 | 0.00 | 0.00 | 45 | 1006.6 |
| 20260509204904 | 87 | 73 | 1.0 | 3.0 | 0.00 | 0.00 | 0.00 | 44 | 1006.7 |
| 20260509204405 | 87 | 76 | 2.0 | 8.0 | 0.00 | 0.00 | 0.00 | 47 | 1006.9 |
| 20260509203905 | 87 | 299 | 5.0 | 9.0 | 0.00 | 0.00 | 0.00 | 46 | 1007.0 |
| 20260509203405 | 87 | 276 | 3.0 | 8.0 | 0.00 | 0.00 | 0.00 | 46 | 1007.0 |
| 20260509202405 | 87 | 322 | 3.0 | 9.0 | 0.00 | 0.00 | 0.00 | 46 | 1007.1 |
| 20260509201905 | 87 | 19 | 5.0 | 12.0 | 0.00 | 0.00 | 0.00 | 46 | 1007.2 |
| 20260509201404 | 87 | 40 | 5.0 | 8.0 | 0.00 | 0.00 | 0.00 | 46 | 1007.1 |
| 20260509200904 | 87 | 341 | 3.0 | 8.0 | 0.00 | 0.00 | 0.00 | 46 | 1007.1 |
| 20260509200404 | 86 | 260 | 5.0 | 8.0 | 0.00 | 0.00 | 0.00 | 48 | 1007.2 |
| 20260509195904 | 86 | 259 | 1.0 | 6.0 | 0.00 | 0.00 | 0.00 | 47 | 1007.3 |
| 20260509195404 | 86 | 338 | 4.0 | 10.0 | 0.00 | 0.00 | 0.00 | 48 | 1007.4 |
| 20260509194905 | 86 | 246 | 2.0 | 8.0 | 0.00 | 0.00 | 0.00 | 47 | 1007.3 |
| 20260509194405 | 85 | 283 | 5.0 | 8.0 | 0.00 | 0.00 | 0.00 | 48 | 1007.5 |
| 20260509193904 | 85 | 273 | 6.0 | 9.0 | 0.00 | 0.00 | 0.00 | 49 | 1007.5 |
| 20260509193405 | 85 | 334 | 6.0 | 10.0 | 0.00 | 0.00 | 0.00 | 49 | 1007.6 |
| 20260509192405 | 85 | 269 | 7.0 | 9.0 | 0.00 | 0.00 | 0.00 | 48 | 1007.6 |